^^
Station Historical Data
 
Daily Summary for May 24, 2017 Units:  English    Metric   Both
« Previous Day
Next Day »
Daily Weekly Monthly Yearly Custom
  Current: High: Low: Average:
Temperature: 84.8 °F 85.2 °F 38.7 °F 58.3 °F
Dew Point: 37.9 °F 46.6 °F 34.6 °F 39.7 °F
Humidity: 19% 88% 19% 56%
Wind Speed: 5.8mph 12.0mph 0.0mph 3.4mph
Wind Gust: 5.8mph 12.0mph - -
WindSSW - - South
Pressure: 29.27 in 29.86 in 29.27 in -
Precipitation: 0.00 in      
Historical Graphs
 
 
Tabular Data for May 24, 2017
Time Temperature Dew Point Pressure Wind Wind Speed Wind Gust Humidity Rainfall Rate (Hourly) solar Conditions
00:00 48.2 °F 35.4 °F 29.86 in SW 3.5 mph 3.5 mph 61% 0.00 in WeatherDisplay:10.37 W/m2 RA
00:05 48.1 °F 35.7 °F 29.85 in SW 2.3 mph 2.3 mph 62% 0.00 in WeatherDisplay:10.37 W/m2 RA
00:10 48.0 °F 35.6 °F 29.85 in SW 2.3 mph 2.3 mph 62% 0.00 in WeatherDisplay:10.37 W/m2 CLR
00:15 47.8 °F 35.8 °F 29.85 in SW 2.3 mph 2.3 mph 63% 0.00 in WeatherDisplay:10.37 W/m2 CLR
00:20 47.8 °F 35.8 °F 29.84 in SW 2.3 mph 2.3 mph 63% 0.00 in WeatherDisplay:10.37 W/m2 CLR
00:25 47.7 °F 35.7 °F 29.84 in SW 2.3 mph 2.3 mph 63% 0.00 in WeatherDisplay:10.37 W/m2 CLR
00:30 47.7 °F 35.7 °F 29.83 in SW 3.5 mph 3.5 mph 63% 0.00 in WeatherDisplay:10.37 W/m2 CLR
00:35 47.7 °F 35.7 °F 29.83 in SW 2.3 mph 2.3 mph 63% 0.00 in WeatherDisplay:10.37 W/m2 CLR
00:40 47.6 °F 36.0 °F 29.83 in SW 2.3 mph 2.3 mph 64% 0.00 in WeatherDisplay:10.37 W/m2 CLR
00:45 47.5 °F 35.9 °F 29.83 in SW 3.5 mph 3.5 mph 64% 0.00 in WeatherDisplay:10.37 W/m2 CLR
00:50 47.5 °F 36.3 °F 29.83 in SW 3.5 mph 3.5 mph 65% 0.00 in WeatherDisplay:10.37 W/m2 CLR
00:55 47.3 °F 36.5 °F 29.82 in SW 3.5 mph 3.5 mph 66% 0.00 in WeatherDisplay:10.37 W/m2 CLR
01:00 47.0 °F 36.6 °F 29.82 in SSW 5.8 mph 5.8 mph 67% 0.00 in WeatherDisplay:10.37 W/m2 CLR
01:05 46.5 °F 36.5 °F 29.81 in SSW 2.3 mph 2.3 mph 68% 0.00 in WeatherDisplay:10.37 W/m2 CLR
01:10 46.2 °F 36.6 °F 29.81 in SW 2.3 mph 2.3 mph 69% 0.00 in WeatherDisplay:10.37 W/m2 CLR
01:15 45.9 °F 36.7 °F 29.81 in SW 2.0 mph 2.0 mph 70% 0.00 in WeatherDisplay:10.37 W/m2 CLR
01:20 45.7 °F 36.8 °F 29.80 in SW 1.2 mph 1.2 mph 71% 0.00 in WeatherDisplay:10.37 W/m2 CLR
01:25 45.6 °F 36.7 °F 29.80 in SW 2.3 mph 2.3 mph 71% 0.00 in WeatherDisplay:10.37 W/m2 CLR
01:30 45.4 °F 36.9 °F 29.81 in SW 2.3 mph 2.3 mph 72% 0.00 in WeatherDisplay:10.37 W/m2 CLR
01:35 45.3 °F 37.2 °F 29.80 in SW 3.5 mph 3.5 mph 73% 0.00 in WeatherDisplay:10.37 W/m2 CLR
01:40 45.3 °F 36.8 °F 29.80 in SW 3.5 mph 3.5 mph 72% 0.00 in WeatherDisplay:10.37 W/m2 CLR
01:45 45.0 °F 36.9 °F 29.80 in SSW 3.5 mph 3.5 mph 73% 0.00 in WeatherDisplay:10.37 W/m2 CLR
01:50 45.0 °F 36.9 °F 29.79 in SSW 3.5 mph 3.5 mph 73% 0.00 in WeatherDisplay:10.37 W/m2 CLR
01:55 45.0 °F 36.9 °F 29.79 in SSW 3.5 mph 3.5 mph 73% 0.00 in WeatherDisplay:10.37 W/m2 CLR
02:00 44.9 °F 36.8 °F 29.79 in SSW 3.5 mph 3.5 mph 73% 0.00 in WeatherDisplay:10.37 W/m2 CLR
02:05 44.8 °F 36.7 °F 29.78 in SSW 3.5 mph 3.5 mph 73% 0.00 in WeatherDisplay:10.37 W/m2 CLR
02:10 44.7 °F 36.6 °F 29.78 in SSW 2.3 mph 2.3 mph 73% 0.00 in WeatherDisplay:10.37 W/m2 CLR
02:15 44.5 °F 36.4 °F 29.78 in SSW 2.3 mph 2.3 mph 73% 0.00 in WeatherDisplay:10.37 W/m2 CLR
02:20 44.4 °F 36.3 °F 29.78 in SSW 3.5 mph 3.5 mph 73% 0.00 in WeatherDisplay:10.37 W/m2 CLR
02:25 44.2 °F 36.4 °F 29.77 in SSW 3.5 mph 3.5 mph 74% 0.00 in WeatherDisplay:10.37 W/m2 CLR
02:30 44.1 °F 36.3 °F 29.77 in SSW 3.5 mph 3.5 mph 74% 0.00 in WeatherDisplay:10.37 W/m2 CLR
02:35 43.9 °F 36.5 °F 29.76 in SW 3.5 mph 3.5 mph 75% 0.00 in WeatherDisplay:10.37 W/m2 CLR
02:40 43.7 °F 36.3 °F 29.76 in SSW 4.0 mph 4.0 mph 75% 0.00 in WeatherDisplay:10.37 W/m2 CLR
02:45 43.6 °F 36.2 °F 29.76 in SSW 1.2 mph 1.2 mph 75% 0.00 in WeatherDisplay:10.37 W/m2 CLR
02:50 43.6 °F 36.2 °F 29.76 in SSW 2.3 mph 2.3 mph 75% 0.00 in WeatherDisplay:10.37 W/m2 CLR
02:55 43.6 °F 36.2 °F 29.76 in SW 2.3 mph 2.3 mph 75% 0.00 in WeatherDisplay:10.37 W/m2 CLR
03:00 43.6 °F 36.2 °F 29.75 in SW 2.3 mph 2.3 mph 75% 0.00 in WeatherDisplay:10.37 W/m2 CLR
03:05 43.4 °F 36.3 °F 29.75 in SSW 3.5 mph 3.5 mph 76% 0.00 in WeatherDisplay:10.37 W/m2 CLR
03:10 43.3 °F 36.2 °F 29.75 in SSW 1.2 mph   76% 0.00 in WeatherDisplay:10.37 W/m2 CLR
03:15 43.2 °F 36.1 °F 29.74 in Calm     76% 0.00 in WeatherDisplay:10.37 W/m2 CLR
03:20 43.0 °F 36.0 °F 29.74 in SW 2.3 mph 2.3 mph 76% 0.00 in WeatherDisplay:10.37 W/m2 CLR
03:25 42.9 °F 35.9 °F 29.74 in SW 2.3 mph 2.3 mph 76% 0.00 in WeatherDisplay:10.37 W/m2 CLR
03:30 42.9 °F 36.2 °F 29.74 in SW 1.2 mph 1.2 mph 77% 0.00 in WeatherDisplay:10.37 W/m2 CLR
03:35 42.7 °F 35.7 °F 29.73 in Calm     76% 0.00 in WeatherDisplay:10.37 W/m2 CLR
03:40 42.7 °F 36.0 °F 29.73 in Calm     77% 0.00 in WeatherDisplay:10.37 W/m2 CLR
03:45 42.5 °F 35.8 °F 29.73 in Calm   0.1 mph 77% 0.00 in WeatherDisplay:10.37 W/m2 CLR
03:46 42.5 °F 35.8 °F 29.73 in SW 1.2 mph 1.2 mph 77% 0.00 in WeatherDisplay:10.37 W/m2 CLR
03:51 42.5 °F 35.8 °F 29.72 in SW 1.2 mph   77% 0.00 in WeatherDisplay:10.37 W/m2 CLR
03:56 42.4 °F 35.7 °F 29.72 in Calm     77% 0.00 in WeatherDisplay:10.37 W/m2 CLR
04:01 42.3 °F 35.9 °F 29.72 in Calm     78% 0.00 in WeatherDisplay:10.37 W/m2 CLR
04:06 42.2 °F 35.8 °F 29.71 in Calm     78% 0.00 in WeatherDisplay:10.37 W/m2 CLR
04:11 42.0 °F 35.6 °F 29.71 in Calm     78% 0.00 in WeatherDisplay:10.37 W/m2 CLR
04:16 41.7 °F 35.7 °F 29.71 in Calm     79% 0.00 in WeatherDisplay:10.37 W/m2 CLR
04:21 41.4 °F 35.4 °F 29.71 in Calm     79% 0.00 in WeatherDisplay:10.37 W/m2 CLR
04:26 41.2 °F 35.2 °F 29.71 in Calm     79% 0.00 in WeatherDisplay:10.37 W/m2 CLR
04:31 41.1 °F 35.4 °F 29.70 in Calm     80% 0.00 in WeatherDisplay:10.37 W/m2 CLR
04:36 40.8 °F 35.1 °F 29.70 in Calm     80% 0.00 in WeatherDisplay:10.37 W/m2 CLR
04:41 40.5 °F 34.8 °F 29.69 in Calm     80% 0.00 in WeatherDisplay:10.37 W/m2 CLR
04:46 40.3 °F 34.9 °F 29.70 in Calm     81% 0.00 in WeatherDisplay:10.37 W/m2 CLR
04:51 40.1 °F 34.7 °F 29.70 in Calm     81% 0.00 in WeatherDisplay:10.37 W/m2 CLR
04:56 39.9 °F 34.9 °F 29.69 in Calm     82% 0.00 in WeatherDisplay:10.37 W/m2 CLR
05:01 39.7 °F 34.7 °F 29.69 in Calm     82% 0.00 in WeatherDisplay:10.37 W/m2 CLR
05:06 39.5 °F 34.8 °F 29.69 in Calm     83% 0.00 in WeatherDisplay:10.37 W/m2 CLR
05:11 39.3 °F 34.6 °F 29.69 in Calm     83% 0.00 in WeatherDisplay:10.37 W/m2 CLR
05:16 39.1 °F 34.7 °F 29.68 in Calm     84% 0.00 in WeatherDisplay:10.37 W/m2 CLR
05:21 39.0 °F 34.9 °F 29.68 in Calm     85% 0.00 in WeatherDisplay:10.37 W/m2 CLR
05:26 38.9 °F 34.8 °F 29.68 in Calm     85% 0.00 in WeatherDisplay:10.37 W/m2 CLR
05:31 38.8 °F 35.0 °F 29.68 in Calm     86% 0.00 in WeatherDisplay:10.37 W/m2 CLR
05:36 38.7 °F 34.9 °F 29.68 in Calm     86% 0.00 in WeatherDisplay:10.37 W/m2 CLR
05:42 38.7 °F 35.2 °F 29.67 in Calm     87% 0.00 in WeatherDisplay:10.37 W/m2 CLR
05:47 38.7 °F 35.5 °F 29.67 in Calm     88% 0.00 in WeatherDisplay:10.37 W/m2 CLR
05:52 39.0 °F 35.7 °F 29.67 in SW 1.2 mph   88% 0.00 in WeatherDisplay:10.37 W/m2 CLR
05:57 39.2 °F 35.9 °F 29.67 in Calm     88% 0.00 in WeatherDisplay:10.37 W/m2 CLR
06:02 39.5 °F 36.0 °F 29.69 in Calm     87% 0.00 in WeatherDisplay:10.37 W/m2 CLR
06:07 39.8 °F 36.2 °F 29.68 in Calm     87% 0.00 in WeatherDisplay:10.37 W/m2 CLR
06:12 40.4 °F 36.8 °F 29.67 in Calm     87% 0.00 in WeatherDisplay:10.37 W/m2 CLR
06:17 41.1 °F 37.5 °F 29.67 in Calm     87% 0.00 in WeatherDisplay:10.37 W/m2 CLR
06:22 41.8 °F 37.9 °F 29.66 in Calm     86% 0.00 in WeatherDisplay:10.37 W/m2 CLR
06:27 42.5 °F 37.7 °F 29.66 in Calm     83% 0.00 in WeatherDisplay:10.37 W/m2 CLR
06:32 43.4 °F 38.0 °F 29.66 in Calm     81% 0.00 in WeatherDisplay:10.37 W/m2 CLR
06:37 44.2 °F 38.1 °F 29.65 in Calm     79% 0.00 in WeatherDisplay:10.37 W/m2 CLR
06:42 44.9 °F 38.5 °F 29.64 in Calm     78% 0.00 in WeatherDisplay:10.37 W/m2 CLR
06:47 45.2 °F 38.1 °F 29.64 in SW 1.2 mph 1.2 mph 76% 0.00 in WeatherDisplay:10.37 W/m2 CLR
06:52 45.6 °F 37.4 °F 29.63 in SW 1.2 mph 1.2 mph 73% 0.00 in WeatherDisplay:10.37 W/m2 CLR
06:57 46.0 °F 37.5 °F 29.63 in NNW 3.5 mph 3.5 mph 72% 0.00 in WeatherDisplay:10.37 W/m2 CLR
07:02 46.0 °F 37.8 °F 29.65 in NNW 3.5 mph 3.5 mph 73% 0.00 in WeatherDisplay:10.37 W/m2 CLR
07:07 46.0 °F 38.2 °F 29.65 in NNW 1.2 mph 1.2 mph 74% 0.00 in WeatherDisplay:10.37 W/m2 CLR
07:12 46.2 °F 38.4 °F 29.65 in NNW 1.2 mph 1.2 mph 74% 0.00 in WeatherDisplay:10.37 W/m2 CLR
07:17 46.7 °F 39.2 °F 29.64 in NNW 1.2 mph 1.2 mph 75% 0.00 in WeatherDisplay:10.37 W/m2 CLR
07:22 47.4 °F 39.5 °F 29.64 in NNW 1.0 mph 1.0 mph 74% 0.00 in WeatherDisplay:10.37 W/m2 CLR
07:27 48.1 °F 39.5 °F 29.63 in Calm     72% 0.00 in WeatherDisplay:10.37 W/m2 CLR
07:32 48.5 °F 39.9 °F 29.62 in North 1.2 mph 1.2 mph 72% 0.00 in WeatherDisplay:10.37 W/m2 CLR
07:37 48.6 °F 40.0 °F 29.62 in North 1.2 mph 1.2 mph 72% 0.00 in WeatherDisplay:10.37 W/m2 CLR
07:42 48.6 °F 39.6 °F 29.62 in North 3.5 mph 3.5 mph 71% 0.00 in WeatherDisplay:10.37 W/m2 CLR
07:47 48.7 °F 39.4 °F 29.61 in North 3.5 mph 3.5 mph 70% 0.00 in WeatherDisplay:10.37 W/m2 CLR
07:52 48.9 °F 39.2 °F 29.61 in NNE 3.5 mph 3.5 mph 69% 0.00 in WeatherDisplay:10.37 W/m2 CLR
07:57 49.1 °F 39.7 °F 29.61 in Calm     70% 0.00 in WeatherDisplay:10.37 W/m2 CLR
07:59 49.3 °F 39.9 °F 29.61 in ENE 1.2 mph 1.2 mph 70% 0.00 in WeatherDisplay:10.37 W/m2 CLR
08:04 49.9 °F 39.8 °F 29.62 in ENE 3.5 mph 3.5 mph 68% 0.00 in WeatherDisplay:10.37 W/m2 CLR
08:09 50.4 °F 40.2 °F 29.62 in ENE 1.2 mph 1.2 mph 68% 0.00 in WeatherDisplay:10.37 W/m2 CLR
08:14 51.0 °F 41.2 °F 29.60 in ENE 1.2 mph 1.2 mph 69% 0.00 in WeatherDisplay:10.37 W/m2 CLR
08:19 51.3 °F 39.9 °F 29.60 in ENE 1.2 mph   65% 0.00 in WeatherDisplay:10.37 W/m2 CLR
08:24 51.7 °F 40.3 °F 29.60 in Calm     65% 0.00 in WeatherDisplay:10.37 W/m2 CLR
08:29 52.3 °F 41.3 °F 29.59 in ENE 1.2 mph 1.2 mph 66% 0.00 in WeatherDisplay:10.37 W/m2 CLR
08:34 52.9 °F 39.8 °F 29.59 in North 3.5 mph 3.5 mph 61% 0.00 in WeatherDisplay:10.37 W/m2 CLR
08:39 53.2 °F 40.5 °F 29.58 in NNE 2.3 mph 2.3 mph 62% 0.00 in WeatherDisplay:10.37 W/m2 CLR
08:44 53.4 °F 40.3 °F 29.58 in NE 1.2 mph   61% 0.00 in WeatherDisplay:10.37 W/m2 CLR
08:49 53.9 °F 42.0 °F 29.58 in NE 3.5 mph 3.5 mph 64% 0.00 in WeatherDisplay:10.37 W/m2 CLR
08:54 54.6 °F 42.3 °F 29.57 in ENE 4.0 mph 4.0 mph 63% 0.00 in WeatherDisplay:10.37 W/m2 CLR
08:59 54.5 °F 42.2 °F 29.57 in ENE 2.3 mph 2.3 mph 63% 0.00 in WeatherDisplay:10.37 W/m2 CLR
09:04 54.6 °F 42.7 °F 29.59 in ENE 2.3 mph 2.3 mph 64% 0.00 in WeatherDisplay:10.37 W/m2 CLR
09:09 54.6 °F 42.7 °F 29.58 in ENE 2.3 mph 2.3 mph 64% 0.00 in WeatherDisplay:10.37 W/m2 CLR
09:14 54.8 °F 42.4 °F 29.58 in ENE 1.2 mph 1.2 mph 63% 0.00 in WeatherDisplay:10.37 W/m2 CLR
09:19 55.2 °F 42.0 °F 29.58 in Calm     61% 0.00 in WeatherDisplay:10.37 W/m2 CLR
09:24 55.9 °F 42.2 °F 29.58 in ENE 3.5 mph 3.5 mph 60% 0.00 in WeatherDisplay:10.37 W/m2 CLR
09:29 56.4 °F 42.2 °F 29.58 in ENE 3.5 mph 3.5 mph 59% 0.00 in WeatherDisplay:10.37 W/m2 CLR
09:34 56.7 °F 43.4 °F 29.57 in ENE 2.0 mph 2.0 mph 61% 0.00 in WeatherDisplay:10.37 W/m2 CLR
09:44 58.2 °F 43.0 °F 29.57 in ENE 2.3 mph 2.3 mph 57% 0.00 in WeatherDisplay:10.37 W/m2 CLR
09:49 59.0 °F 43.8 °F 29.55 in ENE 5.0 mph 5.0 mph 57% 0.00 in WeatherDisplay:10.37 W/m2 CLR
09:54 59.5 °F 42.8 °F 29.55 in South 3.5 mph 3.5 mph 54% 0.00 in WeatherDisplay:10.37 W/m2 CLR
09:59 60.1 °F 40.9 °F 29.55 in SE 5.8 mph 5.8 mph 49% 0.00 in WeatherDisplay:10.37 W/m2 CLR
10:04 60.5 °F 40.2 °F 29.55 in SSE 5.8 mph 5.8 mph 47% 0.00 in WeatherDisplay:10.37 W/m2 CLR
10:09 60.9 °F 41.1 °F 29.54 in ESE 8.1 mph 8.1 mph 48% 0.00 in WeatherDisplay:10.37 W/m2 CLR
10:14 61.2 °F 41.9 °F 29.54 in SE 6.9 mph 6.9 mph 49% 0.00 in WeatherDisplay:10.37 W/m2 CLR
10:19 61.2 °F 41.9 °F 29.54 in SSE 4.6 mph 4.6 mph 49% 0.00 in WeatherDisplay:10.37 W/m2 CLR
10:24 61.9 °F 42.5 °F 29.54 in ESE 6.9 mph 6.9 mph 49% 0.00 in WeatherDisplay:10.37 W/m2 CLR
10:29 62.2 °F 41.7 °F 29.53 in East 6.9 mph 6.9 mph 47% 0.00 in WeatherDisplay:10.37 W/m2 CLR
10:34 62.4 °F 43.0 °F 29.53 in SE 4.6 mph 4.6 mph 49% 0.00 in WeatherDisplay:10.37 W/m2 CLR
10:39 62.8 °F 43.3 °F 29.52 in ESE 4.0 mph 4.0 mph 49% 0.00 in WeatherDisplay:10.37 W/m2 CLR
10:44 63.1 °F 43.1 °F 29.51 in ESE 10.4 mph 10.4 mph 48% 0.00 in WeatherDisplay:10.37 W/m2 CLR
10:49 63.3 °F 44.3 °F 29.51 in ESE 8.0 mph 8.0 mph 50% 0.00 in WeatherDisplay:10.37 W/m2 CLR
10:54 63.6 °F 44.1 °F 29.51 in ESE 6.9 mph 6.9 mph 49% 0.00 in WeatherDisplay:10.37 W/m2 CLR
10:59 64.0 °F 43.9 °F 29.50 in SSE 5.0 mph 5.0 mph 48% 0.00 in WeatherDisplay:10.37 W/m2 CLR
11:04 64.5 °F 44.4 °F 29.50 in SE 10.4 mph 10.4 mph 48% 0.00 in WeatherDisplay:10.37 W/m2 CLR
11:09 64.9 °F 43.6 °F 29.51 in ESE 9.2 mph 9.2 mph 46% 0.00 in WeatherDisplay:10.37 W/m2 CLR
11:14 65.0 °F 43.7 °F 29.49 in SSE 6.9 mph 6.9 mph 46% 0.00 in WeatherDisplay:10.37 W/m2 CLR
11:19 65.6 °F 44.3 °F 29.49 in ESE 4.0 mph 4.0 mph 46% 0.00 in WeatherDisplay:10.37 W/m2 CLR
11:24 66.4 °F 46.1 °F 29.48 in East 6.0 mph 6.0 mph 48% 0.00 in WeatherDisplay:10.37 W/m2 CLR
11:29 67.2 °F 45.1 °F 29.48 in SSE 6.9 mph 6.9 mph 45% 0.00 in WeatherDisplay:10.37 W/m2 CLR
11:34 67.7 °F 45.0 °F 29.47 in East 5.8 mph 5.8 mph 44% 0.00 in WeatherDisplay:10.37 W/m2 CLR
11:39 68.1 °F 45.9 °F 29.47 in SSE 5.8 mph 5.8 mph 45% 0.00 in WeatherDisplay:10.37 W/m2 CLR
11:44 68.4 °F 44.4 °F 29.47 in ESE 6.9 mph 6.9 mph 42% 0.00 in WeatherDisplay:10.37 W/m2 CLR
11:49 68.6 °F 45.8 °F 29.46 in East 6.0 mph 6.0 mph 44% 0.00 in WeatherDisplay:10.37 W/m2 CLR
11:54 68.9 °F 42.9 °F 29.45 in SSE 3.5 mph 3.5 mph 39% 0.00 in WeatherDisplay:10.37 W/m2 CLR
11:59 69.4 °F 44.7 °F 29.45 in ESE 5.0 mph 5.0 mph 41% 0.00 in WeatherDisplay:10.37 W/m2 CLR
12:04 70.2 °F 46.6 °F 29.45 in ESE 8.1 mph 8.1 mph 43% 0.00 in WeatherDisplay:10.37 W/m2 CLR
12:09 70.7 °F 44.5 °F 29.44 in ESE 3.5 mph 3.5 mph 39% 0.00 in WeatherDisplay:10.37 W/m2 CLR
12:14 71.3 °F 43.0 °F 29.43 in SSE 3.5 mph 3.5 mph 36% 0.00 in WeatherDisplay:10.37 W/m2 CLR
12:19 72.0 °F 43.6 °F 29.43 in SSE 9.2 mph 9.2 mph 36% 0.00 in WeatherDisplay:10.37 W/m2 CLR
12:24 72.3 °F 43.8 °F 29.43 in South 1.2 mph 1.2 mph 36% 0.00 in WeatherDisplay:10.37 W/m2 CLR
12:29 72.8 °F 42.8 °F 29.42 in South 5.8 mph 5.8 mph 34% 0.00 in WeatherDisplay:10.37 W/m2 CLR
12:34 73.2 °F 44.6 °F 29.41 in South 6.0 mph 6.0 mph 36% 0.00 in WeatherDisplay:10.37 W/m2 CLR
12:39 73.4 °F 43.3 °F 29.41 in SSE 3.5 mph 3.5 mph 34% 0.00 in WeatherDisplay:10.37 W/m2 CLR
12:44 73.7 °F 44.3 °F 29.41 in ESE 7.0 mph 7.0 mph 35% 0.00 in WeatherDisplay:10.37 W/m2 CLR
12:49 73.9 °F 45.3 °F 29.40 in South 4.6 mph 4.6 mph 36% 0.00 in WeatherDisplay:10.37 W/m2 CLR
12:54 74.1 °F 45.4 °F 29.39 in SSW 4.0 mph 4.1 mph 36% 0.00 in WeatherDisplay:10.37 W/m2 CLR
12:59 74.4 °F 42.6 °F 29.40 in South 3.0 mph 3.0 mph 32% 0.00 in WeatherDisplay:10.37 W/m2 CLR
13:00 74.5 °F 43.5 °F 29.39 in SE 6.0 mph 6.0 mph 33% 0.00 in WeatherDisplay:10.37 W/m2 CLR
13:05 74.7 °F 44.5 °F 29.39 in ESE 3.5 mph 3.5 mph 34% 0.00 in WeatherDisplay:10.37 W/m2 CLR
13:10 75.0 °F 43.1 °F 29.39 in South 6.9 mph 6.9 mph 32% 0.00 in WeatherDisplay:10.37 W/m2 CLR
13:15 75.2 °F 42.5 °F 29.39 in East 5.8 mph 5.8 mph 31% 0.00 in WeatherDisplay:10.37 W/m2 CLR
13:20 75.7 °F 42.9 °F 29.38 in SE 5.8 mph 5.8 mph 31% 0.00 in WeatherDisplay:10.37 W/m2 CLR
13:25 76.0 °F 43.2 °F 29.38 in South 5.8 mph 5.8 mph 31% 0.00 in WeatherDisplay:10.37 W/m2 CLR
13:30 76.0 °F 40.5 °F 29.38 in SE 4.6 mph 4.6 mph 28% 0.00 in WeatherDisplay:10.37 W/m2 CLR
13:35 76.2 °F 40.7 °F 29.38 in SE 4.0 mph 4.0 mph 28% 0.00 in WeatherDisplay:10.37 W/m2 CLR
13:40 76.6 °F 46.1 °F 29.37 in South 2.3 mph 2.3 mph 34% 0.00 in WeatherDisplay:10.37 W/m2 CLR
13:45 76.9 °F 43.1 °F 29.37 in East 4.6 mph 4.6 mph 30% 0.00 in WeatherDisplay:10.37 W/m2 CLR
13:50 77.2 °F 42.5 °F 29.37 in SSE 3.5 mph 3.5 mph 29% 0.00 in WeatherDisplay:10.37 W/m2 CLR
13:55 78.0 °F 45.7 °F 29.36 in SSE 3.5 mph 3.5 mph 32% 0.00 in WeatherDisplay:10.37 W/m2 CLR
14:00 78.3 °F 43.4 °F 29.36 in South 3.5 mph 3.5 mph 29% 0.00 in WeatherDisplay:10.37 W/m2 CLR
14:05 78.6 °F 44.6 °F 29.35 in SSE 3.5 mph 3.5 mph 30% 0.00 in WeatherDisplay:10.37 W/m2 CLR
14:10 78.7 °F 43.8 °F 29.35 in SSE 3.5 mph 3.5 mph 29% 0.00 in WeatherDisplay:10.37 W/m2 CLR
14:15 78.9 °F 45.7 °F 29.35 in SW 5.0 mph 5.0 mph 31% 0.00 in WeatherDisplay:10.37 W/m2 CLR
14:20 79.1 °F 43.2 °F 29.35 in SW 3.5 mph 3.5 mph 28% 0.00 in WeatherDisplay:10.37 W/m2 CLR
14:25 79.3 °F 46.0 °F 29.35 in SSE 3.5 mph 3.5 mph 31% 0.00 in WeatherDisplay:10.37 W/m2 CLR
14:30 79.8 °F 45.6 °F 29.33 in SSW 4.6 mph 4.6 mph 30% 0.00 in WeatherDisplay:10.37 W/m2 CLR
14:35 80.2 °F 42.2 °F 29.33 in West 3.5 mph 3.5 mph 26% 0.00 in WeatherDisplay:10.37 W/m2 CLR
14:40 80.4 °F 43.3 °F 29.33 in WSW 3.5 mph 3.5 mph 27% 0.00 in WeatherDisplay:10.37 W/m2 CLR
14:45 81.0 °F 44.8 °F 29.32 in West 4.0 mph 4.0 mph 28% 0.00 in WeatherDisplay:10.37 W/m2 CLR
14:50 81.5 °F 42.3 °F 29.33 in SSW 4.0 mph 4.0 mph 25% 0.00 in WeatherDisplay:10.37 W/m2 CLR
14:55 81.8 °F 41.5 °F 29.31 in SSW 2.3 mph 2.3 mph 24% 0.00 in WeatherDisplay:10.37 W/m2 CLR
15:00 82.4 °F 42.0 °F 29.31 in WSW 5.8 mph 5.8 mph 24% 0.00 in WeatherDisplay:10.37 W/m2 CLR
15:05 83.1 °F 43.6 °F 29.31 in NW 1.2 mph 1.2 mph 25% 0.00 in WeatherDisplay:10.37 W/m2 CLR
15:10 83.6 °F 41.9 °F 29.30 in WSW 2.0 mph 2.0 mph 23% 0.00 in WeatherDisplay:10.37 W/m2 CLR
15:15 84.0 °F 42.2 °F 29.30 in SSW 8.1 mph 8.1 mph 23% 0.00 in WeatherDisplay:10.37 W/m2 CLR
15:20 83.8 °F 40.9 °F 29.30 in SW 4.6 mph 4.6 mph 22% 0.00 in WeatherDisplay:10.37 W/m2 CLR
15:25 83.7 °F 43.1 °F 29.29 in West 5.8 mph 5.8 mph 24% 0.00 in WeatherDisplay:10.37 W/m2 CLR
15:30 83.8 °F 43.2 °F 29.30 in West 4.0 mph 4.0 mph 24% 0.00 in WeatherDisplay:10.37 W/m2 CLR
15:35 84.2 °F 41.2 °F 29.29 in WNW 3.5 mph 3.5 mph 22% 0.00 in WeatherDisplay:10.37 W/m2 CLR
15:40 84.5 °F 40.3 °F 29.29 in NW 4.0 mph 4.0 mph 21% 0.00 in WeatherDisplay:10.37 W/m2 CLR
15:45 84.6 °F 40.4 °F 29.28 in West 11.5 mph 11.5 mph 21% 0.00 in WeatherDisplay:10.37 W/m2 CLR
15:50 84.5 °F 41.5 °F 29.29 in West 4.6 mph 4.6 mph 22% 0.00 in WeatherDisplay:10.37 W/m2 CLR
15:55 84.5 °F 41.5 °F 29.28 in NNW 9.0 mph 9.0 mph 22% 0.00 in WeatherDisplay:10.37 W/m2 CLR
16:00 84.6 °F 41.6 °F 29.28 in NW 11.0 mph 11.0 mph 22% 0.00 in WeatherDisplay:10.37 W/m2 CLR
16:05 84.8 °F 39.3 °F 29.29 in WNW 6.9 mph 6.9 mph 20% 0.00 in WeatherDisplay:10.37 W/m2 CLR
16:10 85.1 °F 40.8 °F 29.29 in WSW 12.0 mph 12.0 mph 21% 0.00 in WeatherDisplay:10.37 W/m2 CLR
16:15 85.0 °F 39.4 °F 29.29 in NW 10.4 mph 10.4 mph 20% 0.00 in WeatherDisplay:10.37 W/m2 CLR
16:20 85.0 °F 40.7 °F 29.28 in NW 9.2 mph 9.2 mph 21% 0.00 in WeatherDisplay:10.37 W/m2 CLR
16:25 85.1 °F 40.8 °F 29.28 in NW 9.2 mph 9.2 mph 21% 0.00 in WeatherDisplay:10.37 W/m2 CLR
16:30 85.2 °F 42.1 °F 29.28 in NNE 9.2 mph 9.2 mph 22% 0.00 in WeatherDisplay:10.37 W/m2 CLR
16:35 85.1 °F 39.5 °F 29.28 in NW 9.2 mph 9.2 mph 20% 0.00 in WeatherDisplay:10.37 W/m2 CLR
16:40 84.8 °F 42.9 °F 29.28 in North 5.0 mph 5.0 mph 23% 0.00 in WeatherDisplay:10.37 W/m2 CLR
16:45 85.0 °F 41.9 °F 29.27 in NNW 4.6 mph 4.6 mph 22% 0.00 in WeatherDisplay:10.37 W/m2 CLR
16:50 85.2 °F 38.3 °F 29.27 in NNW 3.5 mph 4.0 mph 19% 0.00 in WeatherDisplay:10.37 W/m2 CLR
16:55 85.0 °F 39.4 °F 29.27 in WNW 5.8 mph 5.8 mph 20% 0.00 in WeatherDisplay:10.37 W/m2 CLR
17:00 84.8 °F 37.9 °F 29.27 in NW 5.8 mph 5.8 mph 19% 0.00 in WeatherDisplay:10.37 W/m2 CLR
17:05 84.7 °F 39.2 °F 29.27 in North 9.2 mph 9.2 mph 20% 0.00 in WeatherDisplay:10.37 W/m2 CLR
17:10 84.8 °F 37.9 °F 29.27 in SSW 5.8 mph 5.8 mph 19% 0.00 in WeatherDisplay:10.37 W/m2 CLR
Windsor Co Weather
Compliments of Weather Underground - 2.5 mb